Time;durP1;ratioP1;P1;durP2;ratioP2;P2;SDS_P1;SDS_P2;PMS_P1;PMS_P2;Temp;Humidity;BMP_temperature;BMP_pressure;BME280_temperature;BME280_humidity;BME280_pressure;Samples;Min_cycle;Max_cycle;Signal;HPM_P1;HPM_P2
2021/05/06 00:01:54;;;;;;;5.10;1.88;;;21.30;77.40;;;;;;4068668;28;20130;-61
2021/05/06 00:04:51;;;;;;;6.20;2.05;;;21.30;77.40;;;;;;4070463;29;20048;-61
2021/05/06 00:11:09;;;;;;;6.55;2.08;;;21.30;77.80;;;;;;4101566;28;20081;-65
2021/05/06 00:32:08;;;;;;;6.35;2.47;;;21.40;77.50;;;;;;4068422;28;20447;-64
2021/05/06 00:34:10;;;;;;;8.18;2.75;;;21.40;77.50;;;;;;4103046;28;20031;-63
2021/05/06 00:36:12;;;;;;;10.38;2.70;;;21.40;77.50;;;;;;4097665;28;20567;-61
2021/05/06 00:38:24;;;;;;;10.57;2.97;;;21.40;77.40;;;;;;4095748;28;20254;-64
2021/05/06 00:41:04;;;;;;;10.98;3.25;;;21.50;77.40;;;;;;4097599;28;20039;-63
2021/05/06 00:43:15;;;;;;;12.60;3.70;;;21.50;77.20;;;;;;4097175;28;20045;-64
2021/05/06 00:57:15;;;;;;;10.18;2.83;;;21.50;77.20;;;;;;4113016;28;20104;-63
2021/05/06 01:06:02;;;;;;;10.55;3.15;;;21.50;77.20;;;;;;4100149;28;20489;-62
2021/05/06 01:12:27;;;;;;;12.07;3.47;;;21.50;77.40;;;;;;4115895;28;20169;-62
2021/05/06 01:14:30;;;;;;;7.97;3.50;;;21.50;77.70;;;;;;4103682;28;20477;-62
2021/05/06 01:16:32;;;;;;;9.43;3.42;;;21.50;77.60;;;;;;4097830;28;20031;-63
2021/05/06 01:18:34;;;;;;;10.50;3.08;;;21.60;77.70;;;;;;4097123;28;20031;-62
2021/05/06 01:20:40;;;;;;;6.75;2.70;;;21.60;77.70;;;;;;4109980;28;20076;-63
2021/05/06 01:22:42;;;;;;;8.98;2.80;;;21.60;77.60;;;;;;4111334;28;20042;-65
2021/05/06 01:24:47;;;;;;;5.80;2.08;;;21.60;77.50;;;;;;4118574;28;20054;-62
2021/05/06 01:28:57;;;;;;;8.27;2.42;;;21.60;77.40;;;;;;4102192;28;20049;-68
2021/05/06 01:33:33;;;;;;;6.90;2.50;;;21.70;77.40;;;;;;4113299;28;20121;-62
2021/05/06 01:35:38;;;;;;;6.72;2.70;;;21.70;77.40;;;;;;4113513;28;20038;-61
2021/05/06 01:42:32;;;;;;;4.60;1.83;;;21.70;77.40;;;;;;4112215;28;20046;-64
2021/05/06 01:45:06;;;;;;;7.85;2.08;;;21.70;77.40;;;;;;4102611;28;20459;-64
2021/05/06 01:47:31;;;;;;;10.75;2.22;;;21.80;77.50;;;;;;4099014;28;20605;-62
2021/05/06 01:49:56;;;;;;;9.35;2.38;;;21.80;77.60;;;;;;4094709;28;20078;-63
2021/05/06 01:59:41;;;;;;;5.65;1.92;;;21.80;77.30;;;;;;4111365;28;20050;-63
2021/05/06 02:01:15;;;;;;;6.10;2.03;;;21.80;77.20;;;;;;4094358;28;20441;-66
2021/05/06 02:03:17;;;;;;;8.35;2.38;;;;;;;;;;4112034;28;20070;-67
2021/05/06 02:05:19;;;;;;;5.22;2.10;;;;;;;;;;4112733;28;20082;-62
2021/05/06 02:07:22;;;;;;;9.77;2.40;;;;;;;;;;4112326;28;20038;-62
2021/05/06 02:09:24;;;;;;;6.00;2.30;;;;;;;;;;4113998;28;20018;-64
2021/05/06 02:11:25;;;;;;;6.40;2.08;;;;;;;;;;4106652;28;20058;-62
2021/05/06 02:13:28;;;;;;;4.65;2.08;;;;;;;;;;4098951;28;20031;-61
2021/05/06 02:15:37;;;;;;;4.80;1.85;;;;;;;;;;4097615;28;20418;-60
2021/05/06 02:17:40;;;;;;;6.10;2.22;;;;;;;;;;4098761;28;20046;-65
2021/05/06 02:19:46;;;;;;;6.25;2.08;;;;;;;;;;4101502;28;20125;-63
2021/05/06 02:21:48;;;;;;;8.35;2.50;;;;;;;;;;4114816;28;20474;-63
2021/05/06 02:23:50;;;;;;;6.00;2.10;;;;;;;;;;4104981;28;20579;-64
2021/05/06 02:25:53;;;;;;;5.53;1.77;;;;;;;;;;4098640;28;20461;-65
2021/05/06 02:27:55;;;;;;;6.93;2.17;;;;;;;;;;4104283;28;20465;-65
2021/05/06 02:29:57;;;;;;;7.50;2.38;;;;;;;;;;4101460;28;20546;-62
2021/05/06 02:31:58;;;;;;;5.53;2.60;;;;;;;;;;4095984;28;20041;-61
2021/05/06 02:34:00;;;;;;;6.57;2.22;;;;;;;;;;4103297;28;20330;-61
2021/05/06 02:36:02;;;;;;;9.18;2.50;;;;;;;;;;4114270;28;20121;-61
2021/05/06 02:38:06;;;;;;;11.65;2.78;;;21.90;77.20;;;;;;4107016;28;20038;-61
2021/05/06 02:40:10;;;;;;;8.30;3.13;;;22.30;76.10;;;;;;4097902;28;20039;-61
2021/05/06 02:42:13;;;;;;;8.32;2.58;;;22.40;76.70;;;;;;4113505;28;20050;-62
2021/05/06 02:44:15;;;;;;;6.90;2.35;;;22.40;76.70;;;;;;4112878;28;20049;-60
2021/05/06 02:46:17;;;;;;;9.67;3.07;;;22.40;77.20;;;;;;4113537;28;20096;-61
2021/05/06 02:48:19;;;;;;;6.78;2.55;;;22.40;76.40;;;;;;4109949;28;20516;-61
2021/05/06 02:50:23;;;;;;;7.55;2.33;;;;;;;;;;4105036;28;20034;-61
2021/05/06 02:54:34;;;;;;;8.93;3.22;;;;;;;;;;4100997;28;20115;-61
2021/05/06 02:56:58;;;;;;;6.93;2.65;;;;;;;;;;4104306;28;20437;-64
2021/05/06 03:03:22;;;;;;;6.35;2.38;;;;;;;;;;4088299;29;20062;-62
2021/05/06 03:05:27;;;;;;;4.75;2.20;;;;;;;;;;4073660;28;20123;-61
2021/05/06 03:07:31;;;;;;;7.03;2.33;;;;;;;;;;4070291;28;20035;-67
2021/05/06 03:11:51;;;;;;;8.50;2.20;;;;;;;;;;4075137;28;20039;-63
2021/05/06 03:23:25;;;;;;;5.93;2.05;;;22.70;76.30;;;;;;4068627;28;20142;-65
2021/05/06 03:25:29;;;;;;;7.35;2.20;;;22.70;76.20;;;;;;4084647;28;20371;-64
2021/05/06 03:27:33;;;;;;;6.45;1.88;;;22.80;76.20;;;;;;4072513;28;20027;-64
2021/05/06 03:29:38;;;;;;;6.45;2.30;;;22.80;76.20;;;;;;4073241;28;20090;-64
2021/05/06 03:41:39;;;;;;;6.18;2.40;;;22.80;76.30;;;;;;4074725;28;20208;-61
2021/05/06 03:44:21;;;;;;;7.22;2.28;;;22.80;76.20;;;;;;4083906;28;20054;-63
2021/05/06 04:03:14;;;;;;;5.50;2.63;;;22.80;76.20;;;;;;4058788;29;20044;-65
2021/05/06 04:16:46;;;;;;;6.70;2.40;;;23.00;75.60;;;;;;4112836;28;20080;-61
2021/05/06 04:18:55;;;;;;;7.15;2.35;;;23.00;75.60;;;;;;4120158;28;20472;-62
2021/05/06 04:27:59;;;;;;;5.35;2.33;;;23.30;74.70;;;;;;4102717;28;20033;-61
2021/05/06 04:30:19;;;;;;;4.57;1.98;;;23.40;74.60;;;;;;4097976;28;20569;-63
2021/05/06 04:37:04;;;;;;;4.80;2.20;;;23.60;74.00;;;;;;4116392;28;20112;-63
2021/05/06 04:39:10;;;;;;;5.53;1.60;;;23.70;73.70;;;;;;4116104;28;20561;-65
2021/05/06 04:42:01;;;;;;;3.53;1.88;;;23.70;73.60;;;;;;4115167;28;20046;-62
2021/05/06 04:55:26;;;;;;;4.78;1.92;;;23.90;73.20;;;;;;4111445;28;20065;-63
2021/05/06 05:06:16;;;;;;;6.70;2.17;;;23.80;73.50;;;;;;4108384;28;20458;-62
2021/05/06 05:08:19;;;;;;;6.53;2.10;;;23.80;73.60;;;;;;4112032;28;20030;-61
2021/05/06 05:10:45;;;;;;;4.47;1.90;;;23.80;73.60;;;;;;4104097;28;20054;-61
2021/05/06 05:15:07;;;;;;;6.40;2.28;;;23.80;73.80;;;;;;4094545;28;20030;-60
2021/05/06 05:23:56;;;;;;;6.75;2.53;;;23.80;74.70;;;;;;4104673;28;20443;-66
2021/05/06 05:26:02;;;;;;;5.78;2.03;;;23.80;74.10;;;;;;4101867;28;20402;-69
2021/05/06 05:28:06;;;;;;;7.93;2.75;;;23.80;73.90;;;;;;4095440;28;20674;-67
2021/05/06 05:30:10;;;;;;;7.57;2.83;;;23.80;73.90;;;;;;4093736;28;20043;-66
2021/05/06 05:32:12;;;;;;;7.70;2.85;;;23.80;74.00;;;;;;4093164;28;20392;-64
2021/05/06 05:36:34;;;;;;;6.38;2.75;;;23.90;73.90;;;;;;4092288;28;20068;-63
2021/05/06 05:41:01;;;;;;;8.80;2.80;;;24.00;73.60;;;;;;4091773;28;20504;-64
2021/05/06 05:43:09;;;;;;;8.15;2.85;;;24.00;73.70;;;;;;4093293;28;20142;-64
2021/05/06 05:48:28;;;;;;;10.95;3.13;;;23.90;74.00;;;;;;4101948;28;20206;-66
2021/05/06 05:54:41;;;;;;;8.63;2.70;;;23.90;74.10;;;;;;4094535;28;20066;-64
2021/05/06 05:56:43;;;;;;;8.65;2.83;;;23.80;74.10;;;;;;4091563;28;20126;-65
2021/05/06 05:58:46;;;;;;;12.88;2.90;;;23.80;74.10;;;;;;4088172;28;20157;-64
2021/05/06 06:00:48;;;;;;;7.00;2.42;;;23.80;74.20;;;;;;4091547;28;20030;-68
2021/05/06 06:02:50;;;;;;;8.07;2.70;;;23.80;74.20;;;;;;4093969;28;20171;-66
2021/05/06 06:04:52;;;;;;;7.45;2.72;;;23.80;74.20;;;;;;4096403;28;20105;-65
2021/05/06 06:06:54;;;;;;;11.98;3.55;;;23.80;74.10;;;;;;4109791;28;20600;-63
2021/05/06 06:08:56;;;;;;;9.90;4.00;;;23.80;74.00;;;;;;4106818;28;20062;-65
2021/05/06 06:10:58;;;;;;;11.43;4.00;;;23.80;74.00;;;;;;4108291;28;20453;-64
2021/05/06 06:13:01;;;;;;;13.63;4.20;;;23.80;74.10;;;;;;4112567;28;20237;-64
2021/05/06 06:15:05;;;;;;;11.10;3.20;;;23.80;74.10;;;;;;4112617;28;20357;-63
2021/05/06 06:17:07;;;;;;;12.43;3.53;;;23.80;74.10;;;;;;4110842;28;20417;-64
2021/05/06 06:19:09;;;;;;;11.57;4.47;;;23.70;74.00;;;;;;4111676;28;20022;-63
2021/05/06 06:23:17;;;;;;;10.10;3.63;;;23.80;74.00;;;;;;4108862;28;20313;-65
2021/05/06 06:25:19;;;;;;;11.07;3.25;;;23.80;74.00;;;;;;4110748;28;20019;-65
2021/05/06 06:27:21;;;;;;;10.32;3.35;;;23.80;74.00;;;;;;4096416;28;20236;-65
2021/05/06 06:29:34;;;;;;;7.82;2.95;;;23.80;73.80;;;;;;4094026;28;20043;-64
2021/05/06 06:31:44;;;;;;;8.82;3.15;;;23.80;73.70;;;;;;4099593;28;20038;-62
2021/05/06 06:33:47;;;;;;;9.77;3.65;;;23.80;73.70;;;;;;4113740;28;20746;-63
2021/05/06 06:35:50;;;;;;;10.83;3.47;;;23.80;73.80;;;;;;4102568;28;20356;-63
2021/05/06 06:37:52;;;;;;;11.43;3.35;;;23.70;73.80;;;;;;4100802;28;20046;-64
2021/05/06 06:39:55;;;;;;;10.77;3.40;;;23.70;73.80;;;;;;4099771;28;21143;-63
2021/05/06 06:41:57;;;;;;;13.18;3.83;;;23.70;73.80;;;;;;4107313;28;20113;-62
2021/05/06 06:44:01;;;;;;;10.27;3.22;;;23.70;73.90;;;;;;4110657;28;20074;-64
2021/05/06 06:46:04;;;;;;;10.25;3.30;;;23.70;74.00;;;;;;4097666;28;20030;-63
2021/05/06 06:48:07;;;;;;;8.60;2.78;;;23.60;74.00;;;;;;4097336;28;20042;-64
2021/05/06 06:50:10;;;;;;;8.15;3.05;;;23.60;74.00;;;;;;4100170;28;20038;-68
2021/05/06 06:52:12;;;;;;;11.25;3.33;;;23.60;74.00;;;;;;4101060;28;20129;-68
2021/05/06 06:54:14;;;;;;;7.80;2.47;;;23.60;73.90;;;;;;4111892;28;20448;-69
2021/05/06 06:56:17;;;;;;;7.88;2.90;;;23.60;73.90;;;;;;4109275;28;20682;-68
2021/05/06 06:58:19;;;;;;;6.85;2.70;;;23.50;73.80;;;;;;4094607;28;20023;-67
2021/05/06 07:00:21;;;;;;;10.82;3.00;;;23.50;73.80;;;;;;4098460;28;20047;-67
2021/05/06 07:02:23;;;;;;;7.13;3.00;;;23.50;73.90;;;;;;4100868;28;20050;-67
2021/05/06 07:04:25;;;;;;;8.10;3.08;;;23.50;74.00;;;;;;4098851;28;20558;-66
2021/05/06 07:06:27;;;;;;;7.10;2.70;;;23.40;74.00;;;;;;4100466;28;20038;-67
2021/05/06 07:08:33;;;;;;;7.53;2.78;;;23.40;74.10;;;;;;4099156;28;20070;-67
2021/05/06 07:10:35;;;;;;;7.40;3.05;;;23.40;74.10;;;;;;4101571;28;20046;-67
2021/05/06 07:12:37;;;;;;;10.00;2.83;;;23.30;74.10;;;;;;4101413;28;21254;-67
2021/05/06 07:14:39;;;;;;;8.43;3.13;;;23.30;74.10;;;;;;4098870;28;20058;-68
2021/05/06 07:16:41;;;;;;;9.00;2.90;;;23.30;74.20;;;;;;4099525;28;20129;-68
2021/05/06 07:18:43;;;;;;;8.18;2.97;;;23.30;74.20;;;;;;4112459;28;20401;-67
2021/05/06 07:20:47;;;;;;;8.18;2.95;;;23.30;74.30;;;;;;4099870;28;20784;-67
2021/05/06 07:22:49;;;;;;;7.00;2.90;;;23.30;74.40;;;;;;4094435;28;20267;-67
2021/05/06 07:24:52;;;;;;;8.80;2.85;;;23.30;74.40;;;;;;4095423;28;20043;-66
2021/05/06 07:26:54;;;;;;;;;;;23.20;74.50;;;;;;4093495;28;20054;-67
2021/05/06 07:28:56;;;;;;;10.80;2.95;;;23.20;74.50;;;;;;4097714;28;19914;-65
2021/05/06 07:31:03;;;;;;;9.07;2.55;;;23.20;74.50;;;;;;4096746;28;20023;-68
2021/05/06 07:33:05;;;;;;;8.75;3.13;;;23.20;74.60;;;;;;4095214;28;20050;-70
2021/05/06 07:35:08;;;;;;;9.10;3.03;;;23.20;74.60;;;;;;4093638;28;20220;-70
2021/05/06 07:37:10;;;;;;;8.52;2.85;;;23.10;74.60;;;;;;4101185;28;20049;-70
2021/05/06 07:39:12;;;;;;;7.00;2.60;;;23.10;74.60;;;;;;4099826;28;20030;-70
2021/05/06 07:41:16;;;;;;;8.13;3.65;;;23.10;74.60;;;;;;4099023;28;20039;-69
2021/05/06 07:43:18;;;;;;;6.65;3.03;;;23.10;74.70;;;;;;4095309;28;20043;-68
2021/05/06 07:45:21;;;;;;;7.15;2.83;;;23.10;74.70;;;;;;4097508;28;20507;-59
2021/05/06 07:47:23;;;;;;;7.13;2.67;;;23.10;74.70;;;;;;4100666;28;20491;-68
2021/05/06 07:49:25;;;;;;;7.40;2.78;;;23.10;75.80;;;;;;4107632;28;20023;-67
2021/05/06 07:51:28;;;;;;;11.85;3.25;;;23.10;75.30;;;;;;4094521;28;20403;-66
2021/05/06 07:54:30;;;;;;;6.70;2.63;;;23.10;75.40;;;;;;4097915;28;20039;-66
2021/05/06 07:56:01;;;;;;;7.60;2.40;;;23.10;75.70;;;;;;4092190;28;20677;-67
2021/05/06 07:58:05;;;;;;;8.77;2.38;;;23.10;75.70;;;;;;4117907;28;20613;-66
2021/05/06 08:00:15;;;;;;;8.35;2.63;;;23.10;75.70;;;;;;4112594;28;20046;-66
2021/05/06 08:02:18;;;;;;;8.38;2.60;;;23.10;75.60;;;;;;4129789;28;20107;-65
2021/05/06 08:04:21;;;;;;;6.32;2.30;;;23.10;75.50;;;;;;4117638;28;20098;-63
2021/05/06 08:06:23;;;;;;;4.93;2.13;;;23.20;75.40;;;;;;4100777;28;20499;-65
2021/05/06 08:08:26;;;;;;;5.22;2.05;;;23.20;75.10;;;;;;4099673;28;20526;-74
2021/05/06 08:10:28;;;;;;;6.43;2.28;;;23.20;75.00;;;;;;4100904;28;20053;-68
2021/05/06 08:12:30;;;;;;;6.15;1.73;;;23.20;75.20;;;;;;4102011;28;20109;-70
2021/05/06 08:14:32;;;;;;;6.28;1.77;;;23.20;75.50;;;;;;4095433;28;20043;-70
2021/05/06 08:16:34;;;;;;;6.57;2.13;;;23.20;75.60;;;;;;4099622;28;20050;-65
2021/05/06 08:18:37;;;;;;;15.98;3.25;;;23.20;75.90;;;;;;4115095;28;20018;-66
2021/05/06 08:20:41;;;;;;;6.32;2.50;;;23.20;75.90;;;;;;4104543;28;20034;-70
2021/05/06 08:22:43;;;;;;;8.63;2.70;;;23.20;76.00;;;;;;4098734;28;20051;-64
2021/05/06 08:24:45;;;;;;;5.32;2.25;;;23.20;76.00;;;;;;4095385;28;20430;-69
2021/05/06 08:26:48;;;;;;;7.97;2.55;;;23.20;76.10;;;;;;4102143;28;20086;-69
2021/05/06 08:28:51;;;;;;;8.55;2.40;;;23.20;76.10;;;;;;4097316;28;20452;-68
2021/05/06 08:30:53;;;;;;;;;;;23.20;76.30;;;;;;4100384;28;20035;-68
2021/05/06 08:32:55;;;;;;;8.65;2.55;;;23.20;76.30;;;;;;4097130;28;19914;-67
2021/05/06 08:34:57;;;;;;;8.43;2.42;;;23.20;76.30;;;;;;4096262;28;20046;-65
2021/05/06 08:36:59;;;;;;;11.70;2.40;;;23.20;76.30;;;;;;4097851;28;20421;-68
2021/05/06 08:39:03;;;;;;;10.88;2.90;;;23.20;76.30;;;;;;4099381;28;20043;-66
2021/05/06 08:41:06;;;;;;;11.43;2.33;;;23.20;76.50;;;;;;4097684;28;20346;-67
2021/05/06 08:43:11;;;;;;;9.52;2.40;;;23.20;77.00;;;;;;4101172;28;20049;-67
2021/05/06 08:45:14;;;;;;;13.65;2.97;;;23.20;76.20;;;;;;4095478;28;20117;-73
2021/05/06 08:47:19;;;;;;;8.63;2.60;;;23.30;76.50;;;;;;4091896;28;20415;-67
2021/05/06 08:49:21;;;;;;;10.73;2.42;;;23.30;76.40;;;;;;4095483;28;20501;-68
2021/05/06 08:51:24;;;;;;;7.23;2.90;;;23.30;76.40;;;;;;4111071;28;20146;-72
2021/05/06 08:53:26;;;;;;;9.73;2.70;;;23.30;76.30;;;;;;4114590;28;20096;-69
2021/05/06 08:55:28;;;;;;;5.82;2.47;;;23.30;76.30;;;;;;4108323;28;20287;-72
2021/05/06 08:57:31;;;;;;;6.43;2.22;;;23.30;76.20;;;;;;4093887;28;20027;-69
2021/05/06 08:59:33;;;;;;;6.93;2.22;;;23.30;76.20;;;;;;4102351;28;20236;-70
2021/05/06 09:01:35;;;;;;;5.72;2.20;;;23.30;76.10;;;;;;4095757;28;20112;-71
2021/05/06 09:03:37;;;;;;;8.20;2.47;;;23.30;76.00;;;;;;4114488;28;20053;-72
2021/05/06 09:06:11;;;;;;;8.55;2.60;;;23.30;75.90;;;;;;4102717;28;20567;-68
2021/05/06 09:08:33;;;;;;;11.63;2.38;;;23.30;76.00;;;;;;4093567;28;20043;-76
2021/05/06 09:10:38;;;;;;;7.25;2.40;;;23.30;76.10;;;;;;4095497;28;20575;-69
2021/05/06 09:12:40;;;;;;;10.77;2.47;;;23.30;76.00;;;;;;4093026;28;20440;-68
2021/05/06 09:14:50;;;;;;;7.03;2.75;;;23.40;75.90;;;;;;4088314;28;20051;-74
2021/05/06 09:16:52;;;;;;;4.18;1.90;;;23.30;75.80;;;;;;4091601;28;20045;-70
2021/05/06 09:19:02;;;;;;;4.85;2.00;;;23.30;75.70;;;;;;4097406;28;20023;-73
2021/05/06 09:21:06;;;;;;;9.43;2.83;;;23.30;75.70;;;;;;4097089;28;20066;-71
2021/05/06 09:23:08;;;;;;;6.65;2.67;;;23.30;75.70;;;;;;4092108;28;20055;-68
2021/05/06 09:25:29;;;;;;;6.60;2.28;;;23.30;75.70;;;;;;4097470;28;20121;-68
2021/05/06 09:27:31;;;;;;;5.88;2.50;;;23.30;75.70;;;;;;4095624;28;20034;-71
2021/05/06 09:29:41;;;;;;;8.48;2.60;;;23.30;75.70;;;;;;4106221;28;20536;-68
2021/05/06 09:31:43;;;;;;;9.27;2.97;;;23.30;75.70;;;;;;4111680;28;20043;-69
2021/05/06 09:33:49;;;;;;;8.18;2.72;;;23.30;75.60;;;;;;4115093;28;20042;-68
2021/05/06 09:35:51;;;;;;;6.68;2.50;;;23.30;75.60;;;;;;4098226;28;20046;-67
2021/05/06 09:37:53;;;;;;;11.68;3.08;;;23.30;75.50;;;;;;4092854;28;20568;-70
2021/05/06 09:40:02;;;;;;;7.20;2.72;;;23.30;75.70;;;;;;4099364;28;20038;-69
2021/05/06 09:42:11;;;;;;;7.22;2.10;;;23.30;75.70;;;;;;4095634;28;20123;-67
2021/05/06 09:44:19;;;;;;;7.53;2.15;;;23.30;75.70;;;;;;4094133;28;20050;-68
2021/05/06 09:46:35;;;;;;;8.48;2.53;;;23.30;75.60;;;;;;4095007;28;20049;-68
2021/05/06 09:48:37;;;;;;;11.00;2.80;;;23.30;75.60;;;;;;4096292;28;20088;-69
2021/05/06 09:50:43;;;;;;;8.48;2.80;;;23.30;75.60;;;;;;4097142;28;20096;-70
2021/05/06 09:52:55;;;;;;;9.60;2.92;;;23.30;76.10;;;;;;4094676;28;20053;-70
2021/05/06 09:54:57;;;;;;;9.68;2.45;;;23.30;75.50;;;;;;4096583;28;20093;-67
2021/05/06 09:57:05;;;;;;;6.40;2.40;;;23.30;75.70;;;;;;4093030;28;20154;-71
2021/05/06 09:59:08;;;;;;;6.57;2.53;;;23.30;75.70;;;;;;4095858;28;20059;-54
2021/05/06 10:01:11;;;;;;;6.22;2.20;;;23.40;75.50;;;;;;4099235;28;20064;-47
2021/05/06 10:03:17;;;;;;;8.27;2.60;;;23.40;75.40;;;;;;4091940;28;20097;-58
2021/05/06 10:05:19;;;;;;;18.95;4.10;;;23.40;75.20;;;;;;4093311;28;20109;-60
2021/05/06 10:07:23;;;;;;;19.50;3.72;;;23.40;75.10;;;;;;4094135;28;20039;-55
2021/05/06 10:09:25;;;;;;;19.23;3.42;;;23.40;75.30;;;;;;4111905;28;20597;-55
2021/05/06 10:11:27;;;;;;;25.92;2.90;;;23.40;75.30;;;;;;4109857;28;20878;-56
2021/05/06 10:13:29;;;;;;;7.70;2.60;;;23.40;75.20;;;;;;4105699;28;20022;-54
2021/05/06 10:15:32;;;;;;;12.23;2.78;;;23.40;75.10;;;;;;4097344;28;20113;-55
2021/05/06 10:17:34;;;;;;;6.18;2.33;;;23.40;75.10;;;;;;4103242;28;20419;-52
2021/05/06 10:19:39;;;;;;;9.20;2.47;;;23.40;75.00;;;;;;4105503;28;20109;-55
2021/05/06 10:21:41;;;;;;;9.70;2.90;;;23.50;75.00;;;;;;4090562;28;20110;-55
2021/05/06 10:23:49;;;;;;;6.57;2.30;;;23.50;75.20;;;;;;4090817;28;20475;-55
2021/05/06 10:25:54;;;;;;;9.05;2.58;;;23.50;75.30;;;;;;4094148;28;20588;-55
2021/05/06 10:27:57;;;;;;;13.20;2.83;;;23.50;75.40;;;;;;4096499;28;20097;-53
2021/05/06 10:29:59;;;;;;;;;;;23.50;75.30;;;;;;4093782;28;20121;-53
2021/05/06 10:32:02;;;;;;;3.85;1.65;;;23.50;75.30;;;;;;4094454;28;21194;-52
2021/05/06 10:34:04;;;;;;;5.25;2.50;;;23.60;75.40;;;;;;4093525;28;20516;-54
2021/05/06 10:36:07;;;;;;;5.05;2.00;;;23.60;75.40;;;;;;4120223;28;20048;-57
2021/05/06 10:38:09;;;;;;;7.63;2.55;;;23.60;75.40;;;;;;4104408;28;20031;-54
2021/05/06 10:40:27;;;;;;;5.53;2.20;;;23.60;75.40;;;;;;4092666;28;20141;-53
2021/05/06 10:42:33;;;;;;;5.43;2.30;;;23.60;75.40;;;;;;4095058;28;20528;-54
2021/05/06 10:44:38;;;;;;;3.95;1.67;;;23.60;75.40;;;;;;4094804;28;20172;-53
2021/05/06 10:47:03;;;;;;;4.35;1.67;;;23.60;75.40;;;;;;4096863;28;20042;-49
2021/05/06 10:49:05;;;;;;;3.65;1.83;;;23.60;75.30;;;;;;4094141;28;20678;-50
2021/05/06 10:51:27;;;;;;;5.13;1.42;;;23.60;75.30;;;;;;4114714;28;20409;-52
2021/05/06 10:53:30;;;;;;;4.43;1.75;;;23.70;75.30;;;;;;4103910;28;20116;-51
2021/05/06 10:55:56;;;;;;;5.25;1.85;;;23.70;75.30;;;;;;4095901;28;20672;-47
2021/05/06 10:57:58;;;;;;;6.18;2.00;;;23.70;75.20;;;;;;4097537;28;20046;-47
2021/05/06 11:00:01;;;;;;;4.50;1.70;;;23.70;75.20;;;;;;4111645;28;20062;-52
2021/05/06 11:02:04;;;;;;;4.18;1.90;;;23.70;75.20;;;;;;4104421;28;20098;-47
2021/05/06 11:04:06;;;;;;;;;;;23.70;75.20;;;;;;4097024;28;20078;-53
2021/05/06 11:06:30;;;;;;;4.38;1.80;;;23.80;75.20;;;;;;4095965;28;20000;-52
2021/05/06 11:08:34;;;;;;;4.38;1.70;;;23.80;75.20;;;;;;4093878;28;20054;-52
2021/05/06 11:10:57;;;;;;;6.07;2.20;;;23.80;75.10;;;;;;4107431;28;20030;-53
2021/05/06 11:12:59;;;;;;;5.32;2.33;;;23.80;75.10;;;;;;4084836;28;20598;-52
2021/05/06 11:15:02;;;;;;;6.55;2.22;;;23.80;75.00;;;;;;4098826;28;20081;-54
2021/05/06 11:17:19;;;;;;;5.22;2.00;;;23.80;75.00;;;;;;4094216;28;20302;-49
2021/05/06 11:19:42;;;;;;;6.43;2.00;;;23.80;75.00;;;;;;4100048;28;20025;-51
2021/05/06 11:21:45;;;;;;;6.43;2.20;;;23.80;75.00;;;;;;4097792;28;20078;-52
2021/05/06 11:23:52;;;;;;;5.85;2.30;;;23.80;75.00;;;;;;4116354;28;20054;-49
2021/05/06 11:26:01;;;;;;;4.85;2.05;;;23.90;75.00;;;;;;4110669;28;20042;-51
2021/05/06 11:28:24;;;;;;;4.90;2.38;;;23.90;75.10;;;;;;4103321;28;20030;-52
2021/05/06 11:30:33;;;;;;;5.78;2.10;;;23.90;75.00;;;;;;4101217;28;20344;-47
2021/05/06 11:32:36;;;;;;;6.63;2.15;;;23.80;74.90;;;;;;4098037;28;20039;-51
2021/05/06 11:34:40;;;;;;;;;;;23.90;75.00;;;;;;4107465;28;20069;-50
2021/05/06 11:36:42;;;;;;;7.63;2.45;;;23.90;74.90;;;;;;4101234;28;20455;-52
2021/05/06 11:38:53;;;;;;;5.35;2.30;;;23.90;75.00;;;;;;4082921;28;20082;-55
2021/05/06 11:41:02;;;;;;;6.32;2.47;;;23.90;75.50;;;;;;4112100;28;20260;-57
2021/05/06 11:43:05;;;;;;;4.25;1.65;;;23.90;74.80;;;;;;4101428;28;20311;-54
2021/05/06 11:45:13;;;;;;;8.88;2.30;;;23.90;74.80;;;;;;4112800;28;20133;-53
2021/05/06 11:47:28;;;;;;;4.43;2.42;;;23.90;74.80;;;;;;4116531;28;20115;-55
2021/05/06 11:49:30;;;;;;;6.72;2.38;;;23.90;74.70;;;;;;4116983;28;20019;-51
2021/05/06 11:51:36;;;;;;;10.60;2.50;;;23.90;74.80;;;;;;4116031;28;20018;-56
2021/05/06 11:53:39;;;;;;;7.07;2.80;;;23.90;74.90;;;;;;4110575;28;20644;-57
2021/05/06 11:55:44;;;;;;;5.15;2.13;;;23.90;74.90;;;;;;4100820;28;20128;-54
2021/05/06 11:57:50;;;;;;;7.43;2.03;;;23.90;74.80;;;;;;4118671;28;20030;-54
2021/05/06 11:59:52;;;;;;;4.10;2.00;;;24.00;74.80;;;;;;4097464;28;20860;-53
2021/05/06 12:01:54;;;;;;;4.22;1.80;;;24.00;74.70;;;;;;4096850;28;20161;-56
2021/05/06 12:03:57;;;;;;;6.63;2.63;;;24.00;74.60;;;;;;4101893;28;20078;-53
2021/05/06 12:06:00;;;;;;;6.78;2.45;;;24.00;74.50;;;;;;4086679;28;20157;-57
2021/05/06 12:08:04;;;;;;;4.70;1.88;;;23.90;74.40;;;;;;4115456;28;20034;-58
2021/05/06 12:10:10;;;;;;;4.70;1.45;;;23.90;74.50;;;;;;4111793;28;20510;-58
2021/05/06 12:12:22;;;;;;;5.75;1.80;;;23.90;74.50;;;;;;4114898;28;20034;-58
2021/05/06 12:14:37;;;;;;;4.78;2.05;;;23.90;74.70;;;;;;4112175;28;20161;-57
2021/05/06 12:16:40;;;;;;;4.53;1.95;;;23.90;74.80;;;;;;4111443;28;20128;-57
2021/05/06 12:18:53;;;;;;;4.07;1.87;;;23.90;74.80;;;;;;4109749;28;20038;-58
2021/05/06 12:20:57;;;;;;;4.82;1.95;;;23.90;74.80;;;;;;4109602;28;20030;-59
2021/05/06 12:22:59;;;;;;;5.50;2.10;;;23.90;74.90;;;;;;4108864;28;20050;-57
2021/05/06 12:25:01;;;;;;;5.95;1.90;;;23.80;75.00;;;;;;4113414;28;20105;-56
2021/05/06 12:27:26;;;;;;;6.72;2.30;;;23.90;75.00;;;;;;4101400;28;20122;-58
2021/05/06 12:29:28;;;;;;;4.28;1.85;;;23.90;75.10;;;;;;4095755;28;20066;-59
2021/05/06 12:31:44;;;;;;;4.70;1.88;;;23.90;75.20;;;;;;4098695;28;20023;-58
2021/05/06 12:33:46;;;;;;;6.47;2.30;;;23.80;75.10;;;;;;4099849;28;20604;-56
2021/05/06 12:35:52;;;;;;;3.60;1.73;;;23.80;75.20;;;;;;4099205;28;20042;-58
2021/05/06 12:37:55;;;;;;;9.20;2.28;;;23.80;75.10;;;;;;4102270;28;20038;-56
2021/05/06 12:39:57;;;;;;;3.97;1.90;;;23.80;75.10;;;;;;4117350;28;20030;-57
2021/05/06 12:42:01;;;;;;;4.77;2.00;;;23.80;75.20;;;;;;4097602;28;20074;-58
2021/05/06 12:44:03;;;;;;;5.78;2.10;;;23.80;75.20;;;;;;4095573;28;20062;-55
2021/05/06 12:46:10;;;;;;;4.45;1.85;;;23.80;75.30;;;;;;4099175;28;20034;-55
2021/05/06 12:48:12;;;;;;;4.72;2.35;;;23.80;74.70;;;;;;4113923;28;20089;-60
2021/05/06 12:50:25;;;;;;;9.25;2.80;;;23.80;74.40;;;;;;4107842;28;20088;-59
2021/05/06 12:52:40;;;;;;;8.00;2.78;;;23.80;74.10;;;;;;4097660;28;20035;-59
2021/05/06 12:54:42;;;;;;;6.07;2.47;;;23.70;74.20;;;;;;4114687;28;20053;-60
2021/05/06 12:56:45;;;;;;;6.35;2.65;;;23.70;74.30;;;;;;4113581;28;20500;-59
2021/05/06 12:58:47;;;;;;;6.63;2.50;;;23.70;74.40;;;;;;4113731;28;20042;-59
2021/05/06 13:00:55;;;;;;;8.32;2.90;;;23.70;74.40;;;;;;4104252;28;20063;-60
2021/05/06 13:03:14;;;;;;;8.35;3.03;;;23.60;74.50;;;;;;4109380;28;20144;-60
2021/05/06 13:05:41;;;;;;;7.05;2.35;;;23.60;74.70;;;;;;4106876;28;20074;-59
2021/05/06 13:07:52;;;;;;;8.23;2.78;;;23.60;74.70;;;;;;4098398;28;20035;-57
2021/05/06 13:09:55;;;;;;;7.15;2.78;;;23.60;74.70;;;;;;4097930;28;20023;-58
2021/05/06 13:12:10;;;;;;;9.35;2.60;;;23.60;74.70;;;;;;4110557;28;20073;-58
2021/05/06 13:14:13;;;;;;;6.65;2.50;;;23.60;74.70;;;;;;4114097;28;20224;-59
2021/05/06 13:16:17;;;;;;;4.55;1.88;;;23.60;74.70;;;;;;4117364;28;20033;-59
2021/05/06 13:18:20;;;;;;;6.20;1.92;;;23.60;74.70;;;;;;4098527;28;20042;-59
2021/05/06 13:20:24;;;;;;;4.97;2.25;;;23.60;74.70;;;;;;4102811;28;20113;-59
2021/05/06 13:22:27;;;;;;;4.28;2.05;;;23.60;74.80;;;;;;4117353;28;20105;-59
2021/05/06 13:24:43;;;;;;;4.90;1.98;;;23.50;74.70;;;;;;4119674;28;20031;-60
2021/05/06 13:26:46;;;;;;;5.50;2.60;;;23.60;74.80;;;;;;4114529;28;20057;-60
2021/05/06 13:28:48;;;;;;;6.32;2.13;;;23.50;74.70;;;;;;4109898;28;20102;-60
2021/05/06 13:30:51;;;;;;;5.43;2.40;;;23.50;74.70;;;;;;4101942;28;20071;-59
2021/05/06 13:33:08;;;;;;;4.55;2.30;;;23.50;74.80;;;;;;4096495;28;20300;-59
2021/05/06 13:35:17;;;;;;;6.18;2.33;;;23.50;74.90;;;;;;4102262;28;20118;-59
2021/05/06 13:37:19;;;;;;;5.45;2.30;;;23.40;74.80;;;;;;4099025;28;20031;-59
2021/05/06 13:39:21;;;;;;;5.18;2.28;;;23.40;74.80;;;;;;4114990;28;20046;-56
2021/05/06 13:41:28;;;;;;;6.63;2.15;;;23.40;74.90;;;;;;4107291;28;20086;-55
2021/05/06 13:43:30;;;;;;;6.15;2.15;;;23.40;75.00;;;;;;4101740;28;20138;-56
2021/05/06 13:45:32;;;;;;;6.93;2.38;;;23.40;75.00;;;;;;4116663;28;20505;-57
2021/05/06 13:47:35;;;;;;;5.20;2.40;;;23.40;75.00;;;;;;4103390;28;20054;-58
2021/05/06 13:49:37;;;;;;;6.80;2.30;;;23.40;75.10;;;;;;4097477;28;20469;-58
2021/05/06 13:51:39;;;;;;;5.25;2.10;;;23.40;75.10;;;;;;4118773;28;20026;-58
2021/05/06 13:53:43;;;;;;;5.43;2.20;;;23.40;75.30;;;;;;4103430;28;20096;-58
2021/05/06 13:55:46;;;;;;;6.40;2.55;;;23.40;75.30;;;;;;4098989;28;20058;-58
2021/05/06 13:57:48;;;;;;;5.78;2.20;;;23.30;75.30;;;;;;4097380;28;20062;-58